Athens, Tennessee
Current Conditions -  °F | °C
As of 3:35 AM on Wednesday 26 Nov 2014 (Local Time) from KMMI Reporting Station
Scattered Clouds Scattered Clouds  
Wind Chill: 43°   Ceiling: Unl
Heat Index: 43°   Visibility: 10mi
Dew Point: 28°   Wind: 3mph
Humidity: 57%   Direction: 340°NNW
Pressure: 30.04"   Gusts: NA
Location:  35.44°N, 84.59°W
Report Text: KMMI 260835Z AUTO 34003KT 10SM SCT110 06/M02 A3004 RMK
Loading
Personal Weather Stations






























Interactive Weather Map New forecast layout! Learn more

10-Day Weather Forecast

Advertisements
Track Severe Weather on mobile